Time;durP1;ratioP1;P1;durP2;ratioP2;P2;SDS_P1;SDS_P2;PMS_P1;PMS_P2;Temp;Humidity;BMP_temperature;BMP_pressure;BME280_temperature;BME280_humidity;BME280_pressure;Samples;Min_cycle;Max_cycle;Signal;HPM_P1;HPM_P2
2023/07/06 00:02:00;;;;;;;13.13;8.13;;;;;;;21.18;97.07;95099.13;4998098;28;20322;-74
2023/07/06 00:04:25;;;;;;;11.48;7.63;;;;;;;21.21;96.93;95099.38;5032458;28;20227;-74
2023/07/06 00:06:51;;;;;;;12.55;8.50;;;;;;;21.35;96.42;95103.16;5027288;28;20230;-74
2023/07/06 00:09:16;;;;;;;13.88;8.27;;;;;;;21.36;96.87;95112.75;5009782;28;20715;-74
2023/07/06 00:11:44;;;;;;;12.43;8.20;;;;;;;21.34;96.87;95104.22;5023795;28;20254;-74
2023/07/06 00:14:11;;;;;;;13.70;8.73;;;;;;;21.26;96.78;95101.25;5009265;28;20245;-74
2023/07/06 00:16:41;;;;;;;12.15;8.57;;;;;;;21.26;96.92;95107.38;5012775;28;20258;-74
2023/07/06 00:19:08;;;;;;;12.88;8.52;;;;;;;21.28;96.92;95093.84;5034874;28;20275;-74
2023/07/06 00:21:34;;;;;;;12.25;8.27;;;;;;;21.22;97.21;95094.84;5011387;28;20238;-74
2023/07/06 00:24:00;;;;;;;12.52;8.40;;;;;;;21.36;96.18;95091.44;5017878;28;20226;-74
2023/07/06 00:26:25;;;;;;;13.63;8.43;;;;;;;21.30;96.73;95089.03;5016222;28;20233;-74
2023/07/06 00:28:51;;;;;;;13.43;8.40;;;;;;;21.28;97.04;95081.28;5001677;28;20227;-74
2023/07/06 00:31:21;;;;;;;18.98;9.18;;;;;;;21.26;97.40;95087.94;5019284;28;20325;-74
2023/07/06 00:33:50;;;;;;;14.07;8.45;;;;;;;21.27;97.17;95081.56;5035305;28;20238;-74
2023/07/06 00:36:16;;;;;;;12.18;8.18;;;;;;;21.25;97.07;95073.84;5013650;28;20249;-75
2023/07/06 00:38:41;;;;;;;13.18;8.60;;;;;;;21.07;97.88;95074.31;5026640;28;20724;-74
2023/07/06 00:41:07;;;;;;;12.60;8.45;;;;;;;20.97;99.30;95073.44;5021754;28;20236;-74
2023/07/06 00:43:49;;;;;;;12.48;8.40;;;;;;;21.00;98.28;95076.38;5014813;28;20259;-74
2023/07/06 00:46:15;;;;;;;14.45;8.02;;;;;;;21.05;98.33;95072.97;5010773;28;20316;-74
2023/07/06 00:48:44;;;;;;;14.05;7.90;;;;;;;21.20;96.93;95076.50;5016365;28;20317;-74
2023/07/06 00:51:24;;;;;;;12.03;7.43;;;;;;;21.10;97.08;95079.13;5001339;28;20230;-74
2023/07/06 00:53:51;;;;;;;10.07;6.90;;;;;;;21.08;97.19;95077.78;5019545;28;20245;-74
2023/07/06 00:56:23;;;;;;;10.07;7.13;;;;;;;21.15;97.14;95073.00;5012165;28;20241;-74
2023/07/06 00:58:49;;;;;;;11.10;7.15;;;;;;;21.14;96.51;95077.53;5007886;28;20268;-74
2023/07/06 01:01:16;;;;;;;10.55;6.97;;;;;;;21.14;96.96;95074.88;5005100;28;20236;-73
2023/07/06 01:03:44;;;;;;;9.75;6.40;;;;;;;21.09;97.40;95079.38;5022339;28;20903;-75
2023/07/06 01:06:29;;;;;;;7.93;6.13;;;;;;;21.10;97.02;95071.13;5005158;28;20230;-75
2023/07/06 01:08:54;;;;;;;9.25;6.80;;;;;;;20.98;97.95;95078.50;5014329;28;20527;-75
2023/07/06 01:11:20;;;;;;;12.60;7.20;;;;;;;20.83;98.80;95070.44;5028986;28;20233;-74
2023/07/06 01:13:52;;;;;;;11.13;7.10;;;;;;;20.76;99.23;95070.69;5010754;28;20230;-75
2023/07/06 01:16:42;;;;;;;11.88;7.60;;;;;;;20.54;100.00;95070.03;5018543;28;20237;-74
2023/07/06 01:19:29;;;;;;;12.82;7.28;;;;;;;20.71;100.00;95064.53;5028374;28;20713;-75
2023/07/06 01:22:22;;;;;;;10.52;7.43;;;;;;;20.76;100.00;95057.38;5039306;28;20265;-73
2023/07/06 01:25:09;;;;;;;13.13;7.85;;;;;;;20.51;100.00;95059.94;5018931;28;20240;-73
2023/07/06 01:27:49;;;;;;;11.77;7.67;;;;;;;20.36;100.00;95057.16;5048083;28;20238;-75
2023/07/06 01:30:14;;;;;;;11.60;7.53;;;;;;;20.42;100.00;95056.13;5025353;28;20643;-74
2023/07/06 01:32:44;;;;;;;10.80;7.93;;;;;;;20.37;100.00;95050.78;5056167;28;20236;-72
2023/07/06 01:35:20;;;;;;;12.65;7.93;;;;;;;20.52;100.00;95053.53;5026852;28;20233;-72
2023/07/06 01:37:45;;;;;;;11.27;7.57;;;;;;;20.40;100.00;95049.47;5040121;28;20244;-72
2023/07/06 01:40:12;;;;;;;8.75;7.00;;;;;;;20.44;100.00;95051.38;5026216;28;20238;-72
2023/07/06 01:42:42;;;;;;;12.80;7.80;;;;;;;20.41;100.00;95053.72;5041507;28;20255;-74
2023/07/06 01:45:09;;;;;;;11.68;7.60;;;;;;;20.49;100.00;95053.25;5046654;28;20252;-75
2023/07/06 01:47:40;;;;;;;14.55;7.93;;;;;;;20.40;100.00;95055.59;5038143;28;20261;-73
2023/07/06 01:50:09;;;;;;;10.43;7.50;;;;;;;20.29;100.00;95053.13;5032396;28;20237;-72
2023/07/06 01:52:45;;;;;;;13.37;7.97;;;;;;;20.21;100.00;95057.03;5029467;28;20248;-74
2023/07/06 01:55:40;;;;;;;12.70;8.00;;;;;;;20.35;100.00;95052.88;5047691;28;20221;-74
2023/07/06 01:58:33;;;;;;;10.60;7.30;;;;;;;20.24;100.00;95055.75;5039896;28;20234;-74
2023/07/06 02:01:11;;;;;;;11.50;8.00;;;;;;;20.25;100.00;95060.00;5029442;28;20234;-74
2023/07/06 02:03:38;;;;;;;11.70;7.50;;;;;;;20.25;100.00;95055.50;5023016;28;20230;-74
2023/07/06 02:06:06;;;;;;;13.48;7.68;;;;;;;20.15;100.00;95058.88;5023571;28;20284;-74
2023/07/06 02:08:31;;;;;;;11.37;8.13;;;;;;;20.07;100.00;95061.19;5026083;28;20312;-73
2023/07/06 02:10:57;;;;;;;12.17;7.47;;;;;;;20.17;100.00;95053.28;5016554;28;20301;-73
2023/07/06 02:13:23;;;;;;;12.43;7.83;;;;;;;20.10;100.00;95056.16;5027540;28;20239;-74
2023/07/06 02:15:48;;;;;;;11.40;7.67;;;;;;;20.14;100.00;95059.91;5020759;28;20288;-74
2023/07/06 02:18:14;;;;;;;13.33;7.43;;;;;;;20.04;100.00;95051.84;5027290;28;20741;-74
2023/07/06 02:20:39;;;;;;;13.23;7.63;;;;;;;19.94;100.00;95051.78;5023659;28;20464;-74
2023/07/06 02:23:07;;;;;;;9.93;7.53;;;;;;;19.98;100.00;95052.88;5013242;28;20230;-74
2023/07/06 02:25:33;;;;;;;13.23;7.67;;;;;;;20.12;100.00;95046.09;5031260;28;20236;-74
2023/07/06 02:27:59;;;;;;;11.80;7.47;;;;;;;19.90;100.00;95044.56;5015868;28;20226;-74
2023/07/06 02:30:24;;;;;;;12.50;7.50;;;;;;;19.98;100.00;95041.44;5051707;28;20703;-75
2023/07/06 02:32:50;;;;;;;12.53;7.80;;;;;;;20.07;100.00;95038.06;5019806;28;20244;-74
2023/07/06 02:35:15;;;;;;;12.27;7.67;;;;;;;20.00;100.00;95040.13;5022970;28;20745;-74
2023/07/06 02:37:41;;;;;;;12.87;8.17;;;;;;;20.08;100.00;95058.25;5020987;28;20225;-75
2023/07/06 02:40:11;;;;;;;14.37;8.40;;;;;;;20.15;100.00;95047.44;5028137;28;20305;-74
2023/07/06 02:42:37;;;;;;;12.87;7.87;;;;;;;20.00;100.00;95047.31;5012442;28;20816;-74
2023/07/06 02:45:05;;;;;;;13.53;8.57;;;;;;;20.07;100.00;95043.38;5017435;28;20304;-74
2023/07/06 02:47:31;;;;;;;18.40;8.50;;;;;;;20.22;100.00;95036.56;5039694;28;20237;-74
2023/07/06 02:49:56;;;;;;;13.20;8.30;;;;;;;20.15;100.00;95039.44;5025137;28;20226;-74
2023/07/06 02:52:22;;;;;;;15.43;8.20;;;;;;;20.04;100.00;95035.91;5021041;28;20240;-74
2023/07/06 02:54:47;;;;;;;14.70;8.53;;;;;;;20.07;100.00;95035.41;5017619;28;20265;-74
2023/07/06 02:57:13;;;;;;;13.40;8.30;;;;;;;20.10;100.00;95039.41;5011110;28;20234;-74
2023/07/06 02:59:38;;;;;;;15.40;8.20;;;;;;;20.10;100.00;95039.41;5012725;28;20225;-74
2023/07/06 03:02:04;;;;;;;13.93;8.20;;;;;;;20.17;100.00;95040.00;5031688;28;20231;-74
2023/07/06 03:04:30;;;;;;;14.93;8.23;;;;;;;20.17;100.00;95046.13;5015157;28;20320;-74
2023/07/06 03:06:56;;;;;;;15.63;8.10;;;;;;;20.18;100.00;95039.72;5034861;28;20715;-74
2023/07/06 03:09:21;;;;;;;17.50;7.88;;;;;;;20.05;100.00;95045.50;5018627;28;20818;-74
2023/07/06 03:11:47;;;;;;;13.82;8.25;;;;;;;20.06;100.00;95035.69;5029890;28;20734;-74
2023/07/06 03:14:12;;;;;;;13.90;8.03;;;;;;;20.14;100.00;95030.66;5037622;28;20294;-74
2023/07/06 03:16:41;;;;;;;14.75;7.75;;;;;;;20.24;100.00;95029.97;5035270;28;20233;-74
2023/07/06 03:19:10;;;;;;;13.53;8.00;;;;;;;20.15;100.00;95026.97;5023566;28;20767;-74
2023/07/06 03:21:39;;;;;;;12.90;7.70;;;;;;;20.14;100.00;95025.34;5026722;28;20245;-74
2023/07/06 03:24:08;;;;;;;15.37;7.80;;;;;;;20.08;100.00;95029.03;5009880;28;20725;-74
2023/07/06 03:26:34;;;;;;;12.93;7.80;;;;;;;20.08;100.00;95026.38;5019719;28;20238;-78
2023/07/06 03:29:03;;;;;;;13.87;7.80;;;;;;;20.20;100.00;95028.06;5019389;28;20711;-78
2023/07/06 03:31:29;;;;;;;12.30;7.57;;;;;;;20.22;100.00;95029.44;5013576;28;20233;-77
2023/07/06 03:33:56;;;;;;;15.60;7.70;;;;;;;20.26;100.00;95024.38;5012414;28;20226;-78
2023/07/06 03:36:21;;;;;;;15.40;7.50;;;;;;;20.28;100.00;95025.72;4999587;28;20288;-79
2023/07/06 03:38:49;;;;;;;13.43;7.60;;;;;;;20.31;100.00;95019.91;5012448;28;20230;-78
2023/07/06 03:41:16;;;;;;;11.87;7.57;;;;;;;20.45;100.00;95023.72;5013254;28;20257;-78
2023/07/06 03:43:42;;;;;;;13.20;7.72;;;;;;;20.51;100.00;95024.53;5014103;28;20253;-77
2023/07/06 03:46:07;;;;;;;13.27;7.20;;;;;;;20.41;100.00;95033.28;5012051;28;20379;-79
2023/07/06 03:48:33;;;;;;;13.33;7.90;;;;;;;20.57;100.00;95029.63;5038133;28;20236;-78
2023/07/06 03:51:04;;;;;;;12.52;7.80;;;;;;;20.59;99.89;95022.19;5026978;28;20388;-78
2023/07/06 03:53:31;;;;;;;14.65;8.00;;;;;;;20.68;99.34;95025.16;5016946;28;20900;-78
2023/07/06 03:55:56;;;;;;;16.67;8.13;;;;;;;20.70;99.45;95028.34;5014556;28;20230;-78
2023/07/06 03:58:22;;;;;;;13.20;7.73;;;;;;;20.70;100.00;95025.69;5008906;28;20231;-77
2023/07/06 04:00:47;;;;;;;15.87;7.73;;;;;;;20.68;99.52;95030.47;5024886;28;20365;-78
2023/07/06 04:03:13;;;;;;;16.20;8.47;;;;;;;20.73;99.27;95019.84;5011324;28;20281;-78
2023/07/06 04:05:43;;;;;;;11.77;7.78;;;;;;;20.73;99.32;95025.16;5016184;28;20234;-78
2023/07/06 04:08:13;;;;;;;15.00;8.40;;;;;;;20.66;99.11;95025.41;5021380;28;20233;-78
2023/07/06 04:10:39;;;;;;;15.30;8.03;;;;;;;20.64;99.77;95029.38;5013789;28;20613;-78
2023/07/06 04:13:04;;;;;;;13.70;8.27;;;;;;;20.67;99.13;95024.34;5010701;28;20228;-78
2023/07/06 04:15:31;;;;;;;13.18;8.32;;;;;;;20.78;99.03;95025.19;5026307;28;20226;-78
2023/07/06 04:17:56;;;;;;;15.50;8.40;;;;;;;20.79;98.37;95032.94;5006830;28;20272;-78
2023/07/06 04:20:26;;;;;;;12.40;8.27;;;;;;;20.75;98.55;95037.13;5019462;28;20277;-78
2023/07/06 04:22:54;;;;;;;16.87;8.37;;;;;;;20.77;98.07;95044.88;4994753;28;20230;-79
2023/07/06 04:25:21;;;;;;;15.03;8.37;;;;;;;20.64;98.49;95040.03;5006268;28;20707;-79
2023/07/06 04:27:49;;;;;;;12.55;7.97;;;;;;;20.74;98.37;95043.53;5008136;28;20317;-78
2023/07/06 04:30:15;;;;;;;15.27;8.33;;;;;;;20.73;97.67;95041.13;5017021;28;20230;-78
2023/07/06 04:32:41;;;;;;;13.07;7.73;;;;;;;20.73;97.96;95038.47;5014502;28;20264;-78
2023/07/06 04:35:09;;;;;;;12.73;7.90;;;;;;;20.65;98.89;95033.66;5033680;28;20234;-78
2023/07/06 04:37:35;;;;;;;13.87;8.00;;;;;;;20.77;99.09;95039.56;5030361;28;20263;-78
2023/07/06 04:40:01;;;;;;;13.50;7.80;;;;;;;20.74;99.77;95034.75;5042417;28;20316;-78
2023/07/06 04:42:28;;;;;;;25.50;14.57;;;;;;;20.80;99.97;95034.50;5042479;28;20941;-78
2023/07/06 04:44:54;;;;;;;18.23;10.57;;;;;;;20.92;99.08;95038.84;5032198;28;20240;-78
2023/07/06 04:47:23;;;;;;;14.80;8.93;;;;;;;20.77;100.00;95028.91;5023167;28;21005;-77
2023/07/06 04:49:52;;;;;;;16.10;8.70;;;;;;;20.87;98.85;95026.31;5028326;28;20229;-78
2023/07/06 04:52:18;;;;;;;13.13;8.20;;;;;;;20.91;98.60;95029.22;5009177;28;20265;-78
2023/07/06 04:54:44;;;;;;;14.47;8.57;;;;;;;21.01;98.17;95029.28;5012010;28;20234;-78
2023/07/06 04:57:13;;;;;;;16.35;8.30;;;;;;;21.06;98.14;95026.66;5028664;28;20806;-78
2023/07/06 04:59:40;;;;;;;12.80;8.43;;;;;;;21.08;98.16;95029.84;5036450;28;20252;-78
2023/07/06 05:02:06;;;;;;;11.93;8.35;;;;;;;20.91;99.34;95032.69;5024562;28;20313;-77
2023/07/06 05:04:32;;;;;;;14.25;9.00;;;;;;;21.04;99.34;95034.09;5023462;28;20239;-78
2023/07/06 05:06:57;;;;;;;14.43;8.50;;;;;;;21.12;98.67;95030.94;5012384;28;20238;-77
2023/07/06 05:09:24;;;;;;;15.98;9.02;;;;;;;21.09;98.11;95034.91;5024378;28;20268;-78
2023/07/06 05:11:52;;;;;;;15.38;8.93;;;;;;;21.24;97.11;95040.28;5019508;28;20238;-77
2023/07/06 05:14:18;;;;;;;15.57;9.88;;;;;;;21.40;96.10;95044.56;5019667;28;20234;-78
2023/07/06 05:16:43;;;;;;;17.85;9.38;;;;;;;21.32;97.31;95044.31;5021271;28;20229;-78
2023/07/06 05:19:08;;;;;;;14.80;9.20;;;;;;;21.41;97.32;95048.03;5037341;28;20252;-78
2023/07/06 05:21:35;;;;;;;15.05;9.25;;;;;;;21.55;96.54;95046.47;5017808;28;20233;-78
2023/07/06 05:24:01;;;;;;;16.48;9.40;;;;;;;21.98;95.04;95043.34;5039416;28;20339;-78
2023/07/06 05:26:26;;;;;;;19.20;9.95;;;;;;;21.83;95.15;95047.84;5042611;28;20244;-78
2023/07/06 05:28:53;;;;;;;16.80;9.85;;;;;;;21.87;95.11;95054.28;5007593;28;20260;-78
2023/07/06 05:31:18;;;;;;;16.70;9.70;;;;;;;21.91;95.63;95053.47;4996770;28;20320;-78
2023/07/06 05:33:43;;;;;;;19.48;10.52;;;;;;;21.92;95.43;95059.59;5012704;28;20251;-78
2023/07/06 05:36:09;;;;;;;14.38;9.38;;;;;;;21.96;96.35;95058.00;5033896;28;20241;-79
2023/07/06 05:38:34;;;;;;;17.70;9.13;;;;;;;22.00;95.74;95059.84;5029541;28;20230;-79
2023/07/06 05:41:03;;;;;;;15.38;9.05;;;;;;;22.12;94.77;95051.59;5002241;28;20285;-74
2023/07/06 05:43:29;;;;;;;16.13;9.10;;;;;;;22.06;94.40;95061.47;5025931;28;20303;-74
2023/07/06 05:45:54;;;;;;;15.95;8.98;;;;;;;22.13;95.48;95059.34;5008316;28;20819;-76
2023/07/06 05:48:20;;;;;;;14.65;8.88;;;;;;;22.09;94.59;95068.91;5026652;28;20237;-75
2023/07/06 05:50:45;;;;;;;18.15;9.15;;;;;;;22.17;94.79;95059.59;5009680;28;20267;-75
2023/07/06 05:53:12;;;;;;;14.90;8.55;;;;;;;22.13;93.41;95069.19;5031259;28;20230;-75
2023/07/06 05:55:37;;;;;;;14.48;8.63;;;;;;;22.16;94.16;95068.66;5021920;28;20236;-75
2023/07/06 05:58:03;;;;;;;16.48;8.68;;;;;;;22.12;94.52;95075.56;5005201;28;20279;-75
2023/07/06 06:00:32;;;;;;;15.07;8.32;;;;;;;22.08;94.03;95070.00;5035293;28;20229;-75
2023/07/06 06:02:58;;;;;;;14.45;8.38;;;;;;;22.13;93.82;95070.00;5012639;28;20312;-75
2023/07/06 06:05:23;;;;;;;11.68;8.07;;;;;;;22.11;93.66;95072.09;5026926;28;20237;-75
2023/07/06 06:07:49;;;;;;;12.00;8.05;;;;;;;22.20;93.36;95067.06;5030503;28;20256;-74
2023/07/06 06:10:14;;;;;;;12.57;8.25;;;;;;;22.15;92.21;95061.72;5015480;28;20230;-75
2023/07/06 06:12:40;;;;;;;11.65;7.85;;;;;;;22.11;92.53;95066.00;5038460;28;20234;-74
2023/07/06 06:15:08;;;;;;;11.95;7.97;;;;;;;22.08;92.40;95066.53;5005392;28;20230;-75
2023/07/06 06:17:34;;;;;;;11.52;8.07;;;;;;;22.18;91.82;95069.19;5016434;28;20337;-75
2023/07/06 06:19:59;;;;;;;13.10;8.10;;;;;;;22.11;91.88;95066.78;5018416;28;20232;-75
2023/07/06 06:22:25;;;;;;;12.00;8.13;;;;;;;22.19;91.68;95067.34;5021045;28;20308;-75
2023/07/06 06:24:50;;;;;;;13.00;7.88;;;;;;;22.30;90.92;95066.25;5018653;28;20241;-75
2023/07/06 06:27:17;;;;;;;13.38;7.90;;;;;;;22.26;91.52;95067.84;5017704;28;20237;-75
2023/07/06 06:29:43;;;;;;;15.27;7.32;;;;;;;22.30;91.04;95063.59;5030935;28;20295;-79
2023/07/06 06:32:09;;;;;;;18.30;8.00;;;;;;;22.40;91.19;95064.34;5035386;28;20229;-79
2023/07/06 06:34:35;;;;;;;11.82;7.93;;;;;;;22.35;90.82;95053.72;5006533;28;20237;-79
2023/07/06 06:37:04;;;;;;;12.07;7.60;;;;;;;22.49;90.56;95059.28;5047619;28;20323;-78
2023/07/06 06:39:32;;;;;;;9.98;7.40;;;;;;;22.53;89.96;95065.66;5055196;28;21027;-78
2023/07/06 06:42:00;;;;;;;11.07;7.90;;;;;;;22.57;90.24;95064.06;5012802;28;20233;-79
2023/07/06 06:44:28;;;;;;;11.48;7.68;;;;;;;22.45;90.35;95050.22;5053580;28;20241;-79
2023/07/06 06:46:53;;;;;;;11.98;8.07;;;;;;;22.63;90.29;95058.47;5043963;28;20226;-79
2023/07/06 06:49:18;;;;;;;12.88;8.00;;;;;;;22.67;90.10;95053.38;5049750;28;20291;-78
2023/07/06 06:51:44;;;;;;;13.05;7.72;;;;;;;22.76;90.30;95051.75;5047478;28;20298;-79
2023/07/06 06:54:10;;;;;;;13.90;8.23;;;;;;;22.87;89.27;95045.34;5053674;28;20217;-79
2023/07/06 06:56:35;;;;;;;13.30;7.68;;;;;;;22.97;89.49;95041.81;5046514;28;20224;-77
2023/07/06 06:59:01;;;;;;;13.13;7.72;;;;;;;23.04;88.89;95036.97;5041510;28;20216;-78
2023/07/06 07:01:27;;;;;;;11.45;7.03;;;;;;;23.00;87.52;95041.28;5016672;28;20233;-80
2023/07/06 07:03:52;;;;;;;12.43;7.32;;;;;;;23.04;87.50;95043.13;5048584;28;20220;-78
2023/07/06 07:06:17;;;;;;;11.30;7.40;;;;;;;23.02;88.04;95045.28;5053928;28;20234;-79
2023/07/06 07:08:50;;;;;;;8.88;6.88;;;;;;;23.14;87.30;95037.72;5051795;28;20248;-79
2023/07/06 07:11:19;;;;;;;11.57;7.18;;;;;;;23.22;88.44;95041.69;5041621;28;20222;-79
2023/07/06 07:13:44;;;;;;;10.98;6.53;;;;;;;23.27;86.81;95042.47;5047481;28;20255;-79
2023/07/06 07:16:11;;;;;;;11.23;6.53;;;;;;;23.39;84.01;95037.63;5035755;28;20229;-77
2023/07/06 07:18:38;;;;;;;10.82;6.70;;;;;;;23.38;85.45;95040.59;5043390;28;20229;-78
2023/07/06 07:21:04;;;;;;;12.73;7.07;;;;;;;23.44;85.54;95048.28;5046251;28;20304;-78
2023/07/06 07:23:34;;;;;;;10.70;7.28;;;;;;;23.47;85.06;95043.47;5033031;28;20225;-78
2023/07/06 07:26:00;;;;;;;11.40;7.32;;;;;;;23.45;84.63;95041.09;5023424;28;20231;-78
2023/07/06 07:28:25;;;;;;;11.13;7.10;;;;;;;23.60;84.26;95035.63;5048433;28;20233;-79
2023/07/06 07:30:57;;;;;;;10.43;6.90;;;;;;;23.64;84.85;95036.69;5019561;28;20232;-79
2023/07/06 07:33:23;;;;;;;12.88;6.97;;;;;;;23.68;83.09;95037.72;5041947;28;20705;-80
2023/07/06 07:35:50;;;;;;;10.82;7.07;;;;;;;23.85;83.25;95045.34;5020420;28;20229;-79
2023/07/06 07:38:17;;;;;;;11.60;7.10;;;;;;;23.89;82.46;95043.69;5035651;28;20304;-79
2023/07/06 07:40:56;;;;;;;8.65;6.85;;;;;;;23.93;83.96;95044.75;5054157;28;20707;-79
2023/07/06 07:43:29;;;;;;;9.68;6.60;;;;;;;23.93;82.34;95042.09;5040697;28;20231;-78
2023/07/06 07:45:56;;;;;;;10.25;7.00;;;;;;;23.94;82.10;95041.00;5039151;28;20301;-78
2023/07/06 07:48:23;;;;;;;12.88;7.75;;;;;;;23.93;80.43;95040.19;5020614;28;20268;-78
2023/07/06 07:50:50;;;;;;;14.52;6.80;;;;;;;24.07;80.84;95041.16;5040752;28;20264;-78
2023/07/06 07:53:15;;;;;;;9.63;6.63;;;;;;;24.18;79.37;95041.09;5035476;28;20225;-79
2023/07/06 07:55:41;;;;;;;13.20;6.78;;;;;;;24.22;80.83;95042.13;5037212;28;20314;-78
2023/07/06 07:58:08;;;;;;;11.15;6.82;;;;;;;24.32;80.78;95045.50;5050064;28;20225;-78
2023/07/06 08:00:34;;;;;;;13.85;7.20;;;;;;;24.39;81.44;95034.47;5038852;28;20223;-79
2023/07/06 08:03:03;;;;;;;10.93;7.63;;;;;;;24.30;81.09;95036.16;5050277;28;20217;-79
2023/07/06 08:05:29;;;;;;;13.50;8.18;;;;;;;24.37;81.15;95044.66;5016003;28;20644;-79
2023/07/06 08:07:55;;;;;;;11.13;7.50;;;;;;;24.45;80.26;95033.34;5013206;28;20312;-77
2023/07/06 08:10:21;;;;;;;10.15;7.22;;;;;;;24.46;81.14;95033.06;5037065;28;20226;-77
2023/07/06 08:12:48;;;;;;;9.55;7.25;;;;;;;24.58;79.90;95040.69;5027831;28;20230;-79
2023/07/06 08:15:14;;;;;;;11.98;7.15;;;;;;;24.58;79.81;95038.00;5051351;28;20317;-78
2023/07/06 08:17:41;;;;;;;10.25;7.20;;;;;;;24.53;79.59;95038.06;5056870;28;20228;-77
2023/07/06 08:20:10;;;;;;;10.63;7.00;;;;;;;24.84;79.03;95039.38;5051444;28;20212;-78
2023/07/06 08:22:36;;;;;;;9.43;6.63;;;;;;;24.98;78.57;95039.50;5038924;28;20244;-78
2023/07/06 08:25:01;;;;;;;11.13;7.03;;;;;;;25.01;79.70;95039.69;5037194;28;20229;-77
2023/07/06 08:27:27;;;;;;;10.25;6.40;;;;;;;25.02;75.67;95041.31;5051438;28;20829;-78
2023/07/06 08:29:52;;;;;;;11.07;6.75;;;;;;;25.11;76.67;95034.22;5029916;28;20241;-78
2023/07/06 08:32:19;;;;;;;8.75;6.70;;;;;;;25.23;77.05;95031.94;5046547;28;20222;-77
2023/07/06 08:34:44;;;;;;;13.10;7.28;;;;;;;25.30;77.63;95031.56;5048677;28;20229;-77
2023/07/06 08:37:10;;;;;;;9.70;7.22;;;;;;;25.34;76.30;95025.34;5026442;28;20242;-78
2023/07/06 08:39:35;;;;;;;10.77;6.80;;;;;;;25.38;76.39;95033.59;5033087;28;20363;-79
2023/07/06 08:42:01;;;;;;;12.70;7.25;;;;;;;25.52;76.59;95033.72;5026904;28;20239;-78
2023/07/06 08:44:26;;;;;;;12.73;7.20;;;;;;;25.58;77.87;95036.03;5053154;28;20225;-78
2023/07/06 08:46:54;;;;;;;12.98;6.80;;;;;;;25.66;75.88;95030.00;5027327;28;20932;-78
2023/07/06 08:49:31;;;;;;;9.95;7.07;;;;;;;25.59;76.53;95034.13;5051058;28;20228;-78
2023/07/06 08:52:02;;;;;;;13.05;7.07;;;;;;;25.48;76.45;95032.69;5026599;28;20221;-79
2023/07/06 08:54:27;;;;;;;9.73;6.75;;;;;;;25.32;75.66;95035.56;5049580;28;20687;-79
2023/07/06 08:56:53;;;;;;;13.60;6.88;;;;;;;25.38;75.49;95025.56;5048521;28;20230;-79
2023/07/06 08:59:28;;;;;;;11.27;6.50;;;;;;;25.47;73.86;95025.75;5035483;28;20225;-79
2023/07/06 09:01:54;;;;;;;8.52;6.60;;;;;;;25.63;72.43;95027.09;5050184;28;20237;-77
2023/07/06 09:04:20;;;;;;;14.05;6.72;;;;;;;25.81;73.59;95023.63;5023585;28;20946;-78
2023/07/06 09:06:52;;;;;;;9.90;6.65;;;;;;;25.96;72.38;95032.22;5032825;28;20793;-79
2023/07/06 09:09:18;;;;;;;10.65;6.75;;;;;;;25.96;71.77;95034.13;5015632;28;20256;-77
2023/07/06 09:11:43;;;;;;;8.52;6.80;;;;;;;26.03;73.78;95034.56;5021730;28;20245;-78
2023/07/06 09:14:16;;;;;;;10.75;6.55;;;;;;;26.08;73.66;95029.06;5026364;28;20891;-79
2023/07/06 09:16:51;;;;;;;10.45;6.20;;;;;;;26.19;71.76;95030.53;5013601;28;20227;-78
2023/07/06 09:19:17;;;;;;;10.15;6.30;;;;;;;26.27;70.57;95029.84;5017218;28;20324;-78
2023/07/06 09:21:47;;;;;;;8.65;6.57;;;;;;;26.10;69.36;95024.22;5008074;28;20254;-78
2023/07/06 09:24:12;;;;;;;10.40;6.50;;;;;;;26.28;67.82;95030.66;5029498;28;20253;-78
2023/07/06 09:26:38;;;;;;;11.38;6.70;;;;;;;26.42;67.48;95032.28;5022879;28;20258;-79
2023/07/06 09:29:27;;;;;;;8.20;6.35;;;;;;;26.61;68.01;95030.31;5015859;28;20233;-78
2023/07/06 09:32:09;;;;;;;9.77;6.40;;;;;;;26.71;67.55;95024.75;5004809;28;20784;-78
2023/07/06 09:34:35;;;;;;;13.55;6.72;;;;;;;26.87;66.95;95024.50;5029166;28;20237;-78
2023/07/06 09:37:01;;;;;;;9.30;6.63;;;;;;;26.65;68.20;95015.19;5044263;28;20228;-78
2023/07/06 09:39:27;;;;;;;9.48;6.68;;;;;;;26.80;68.47;95011.47;5029096;28;20700;-78
2023/07/06 09:41:53;;;;;;;10.77;6.57;;;;;;;26.90;68.77;95015.84;5027627;28;20240;-78
2023/07/06 09:44:30;;;;;;;12.15;6.93;;;;;;;26.97;68.72;95016.22;5042385;28;20225;-78
2023/07/06 09:46:57;;;;;;;10.25;6.28;;;;;;;27.11;67.18;95014.31;5033811;28;20240;-78
2023/07/06 09:49:26;;;;;;;10.93;6.45;;;;;;;27.01;66.78;95017.25;5012157;28;20747;-77
2023/07/06 09:52:04;;;;;;;9.32;6.40;;;;;;;26.98;65.22;95007.88;5014024;28;20244;-78
2023/07/06 09:55:01;;;;;;;10.02;6.47;;;;;;;26.94;65.60;95014.16;5034383;28;20316;-77
2023/07/06 09:57:30;;;;;;;11.70;6.70;;;;;;;27.10;65.73;95016.25;5007151;28;20296;-78
2023/07/06 09:59:56;;;;;;;10.63;6.30;;;;;;;27.32;66.14;95015.50;5001126;28;20226;-78
2023/07/06 10:02:48;;;;;;;10.10;6.38;;;;;;;27.33;67.72;95009.81;5017798;28;20260;-78
2023/07/06 10:05:52;;;;;;;7.07;5.80;;;;;;;27.53;65.89;95005.94;5031803;28;20218;-77
2023/07/06 10:08:29;;;;;;;8.30;6.15;;;;;;;27.63;65.77;95007.59;5003663;28;20220;-77
2023/07/06 10:11:01;;;;;;;9.05;6.60;;;;;;;27.70;63.90;95007.97;5012632;28;20812;-78
2023/07/06 10:13:53;;;;;;;12.13;6.53;;;;;;;27.35;66.62;94996.06;5017684;28;20287;-78
2023/07/06 10:16:42;;;;;;;12.82;6.90;;;;;;;27.11;65.84;94999.00;5047888;28;20260;-78
2023/07/06 10:19:46;;;;;;;8.73;6.22;;;;;;;27.25;65.80;95005.16;5035263;28;20237;-79
2023/07/06 10:22:50;;;;;;;8.15;6.10;;;;;;;27.55;66.01;95005.59;5028607;28;20251;-78
2023/07/06 10:25:23;;;;;;;10.65;6.55;;;;;;;27.39;68.36;95007.84;5004791;28;20261;-79
2023/07/06 10:27:55;;;;;;;8.95;6.00;;;;;;;27.19;68.50;95008.25;5032145;28;20348;-78
2023/07/06 10:30:28;;;;;;;7.32;5.78;;;;;;;27.14;69.72;95014.53;5000104;28;20276;-74
2023/07/06 10:32:54;;;;;;;10.18;6.10;;;;;;;27.07;70.06;95013.34;5043526;28;20303;-75
2023/07/06 10:35:35;;;;;;;8.18;6.13;;;;;;;26.91;68.59;95006.69;5022635;28;20249;-75
2023/07/06 10:38:01;;;;;;;8.77;6.10;;;;;;;26.83;71.42;95008.19;5014197;28;20337;-74
2023/07/06 10:40:27;;;;;;;11.13;6.10;;;;;;;26.71;71.03;94997.91;5035284;28;20229;-74
2023/07/06 10:43:14;;;;;;;8.68;6.30;;;;;;;26.58;71.56;94993.31;5035911;28;20324;-75
2023/07/06 10:45:42;;;;;;;10.23;6.10;;;;;;;26.56;73.55;94995.50;5048213;28;20237;-75
2023/07/06 10:48:15;;;;;;;9.05;6.05;;;;;;;26.55;70.87;95003.88;5022780;28;20222;-75
2023/07/06 10:50:51;;;;;;;8.52;6.72;;;;;;;26.58;72.11;95003.28;5019482;28;20249;-75
2023/07/06 10:53:34;;;;;;;8.73;6.57;;;;;;;26.54;71.19;94995.00;5017035;28;20233;-74
2023/07/06 10:56:02;;;;;;;8.65;6.30;;;;;;;26.72;70.85;95001.41;5039265;28;20315;-75
2023/07/06 10:58:38;;;;;;;7.80;6.40;;;;;;;26.73;67.84;95001.09;5037102;28;20291;-75
2023/07/06 11:01:07;;;;;;;14.38;7.28;;;;;;;26.70;65.77;95001.66;5050863;28;20228;-75
2023/07/06 11:03:32;;;;;;;11.15;7.93;;;;;;;26.69;68.04;94993.94;5016552;28;20321;-74
2023/07/06 11:06:05;;;;;;;11.40;7.75;;;;;;;26.64;70.19;94992.13;5020919;28;20318;-74
2023/07/06 11:09:07;;;;;;;10.07;7.55;;;;;;;26.66;72.61;94986.47;5027287;28;20268;-75
2023/07/06 11:11:34;;;;;;;11.10;7.85;;;;;;;26.60;72.40;94983.09;5022497;28;20341;-74
2023/07/06 11:14:17;;;;;;;11.25;7.68;;;;;;;26.59;72.87;94986.84;5049288;28;20224;-75
2023/07/06 11:17:08;;;;;;;10.00;8.00;;;;;;;26.74;72.63;94975.81;5044932;28;20236;-75
2023/07/06 11:19:36;;;;;;;11.90;8.18;;;;;;;26.93;72.44;94980.31;5037016;28;20739;-74
2023/07/06 11:22:07;;;;;;;13.52;8.32;;;;;;;27.13;72.60;94975.28;5009756;28;20714;-75
2023/07/06 11:24:41;;;;;;;15.73;8.73;;;;;;;27.42;70.70;94974.97;5002245;28;20254;-75
2023/07/06 11:27:18;;;;;;;9.23;7.03;;;;;;;27.60;68.22;94984.78;5036117;28;20276;-75
2023/07/06 11:29:44;;;;;;;10.32;5.85;;;;;;;27.82;66.50;94986.69;5029705;28;20229;-75
2023/07/06 11:32:59;;;;;;;8.43;5.50;;;;;;;28.02;67.61;94994.28;4999814;28;20739;-75
2023/07/06 11:35:28;;;;;;;9.60;5.80;;;;;;;28.23;65.31;94989.22;4993072;28;20237;-75